Terminal Aerodrome Forecast
Issued by NWS Des Moines, IA

Home | Current Version | Previous Version | Text Only | Print | Product List | Glossary On
Versions: 1 2 3 4 5 6 7 8 9 10 11 12 13 14 15 16 17 18 19 20 21 22 23 24
368
FTUS43 KDMX 242328
TAFDSM
TAF
KDSM 242328Z 2500/2524 15006KT P6SM FEW250
     FM251600 19005KT P6SM VCSH BKN080
     FM251900 20008KT P6SM BKN090=

USA.gov is the U.S. government's official web portal to all federal, state and local government web resources and services.